Charlotte Douglas International Airport
KCLT : now visible

Airfield :











YOU CAN JOIN US ON...

 
LOGIN :

Register | Disclaimer

   EN    FR    IT 

 









Legend :    VFR   Marginal VFR   IFR   Intensive IFR   Very Intensive IFR
Visi :
Ceiling :
>= 8 km
>= 3000ft
5 to 8 km
1000 to 3000 ft
1500m to 5 km
500 to 1000 ft
800 to 1500m
200 to 500 ft
< 800m
< 200 ft
Symbols :   Thunderstorms  Fog  Heavy snow  Heavy precipitations  Wind > 20 kt






- Airport Elevation : 748 ft
- IATA code : CLT


KCLT - Charlotte Douglas International

CURRENT METAR :
  • 281752Z 20003KT 10SM SCT020 BKN040 BKN070 26/21 A3008 RMK AO2 LTG DSNT S SLP180 CB DSNT S AND SW-W 60003 T02610206 10272 20200 58007

EXPIRED METARs :
  • 281652Z 14004KT 10SM SCT008 BKN014 OVC020 25/21 A3009 RMK AO2 SLP183 T02500211
  • 281631Z 14006KT 10SM BKN008 OVC012 24/21 A3011 RMK AO2 T02390206
  • 281552Z 14005KT 10SM BKN006 OVC010 24/21 A3011 RMK AO2 SLP188 T02390206

TAF KCLT
Valid from the 28 at 18:00 until the 30 at 00:00 UTC


281740Z 2818/2924 14006KT 6SM TSRA SCT008CB BKN014
FM282000 17006KT P6SM SCT030 BKN060
TEMPO 2821/2901 4SM TSRA BR OVC025CB
FM290500 18004KT P6SM BKN021
FM290700 18003KT 5SM BR BKN006
FM291400 21004KT P6SM BKN015
FM292000 18007KT P6SM -TSRA BKN040CB
KZTL FIR / North America



MET'MAP, your aeronautical weather chart ! - Copyright ORBIFLY December 2007 - Disclaimer

ORBIFLY MET'MAP TEAM :

Programming & Development : Alexandra Zaïnal
Concept & original design : Baudouin d'Aumeries
Assistance for programming : Marc-Olivier Méhu
Technical & hardware support : Manuel Goepfert

Contact : metmap@orbifly.com




SOURCES & CREDITS :

   NOAA       Earth
Advisory